Arklow Spray — C6VK8 — position and weather

sailwx.info

Track history (hours):
 
Tides and Currents Weather Stations Pressure Air Temp Water Temp Dewpoint Dewpoint Depression Visibility Wind Speed Wind Dir Waves Ship Positions

Arklow Spray

Last reported at 2014-Dec-19 18:33 UTC. Time now 2014-Dec-21 06:54 UTC.
Position N 54°24' E 012°08'.

Length 90 m; draft 3.4 m.

Type: Cargo ship. MMSI: 309914000.

Date/timePositionNaut miles runAvg speedWind from/ knotsBaromVisibWave heightAir tempDewpointWater temp
2014-Dec-19 18:33N 54°24' E 012°08'1211.8
2014-Dec-19 17:33N 54°24' E 011°48'1212.5
2014-Dec-19 16:33N 54°29' E 011°29'4011.5
2014-Dec-19 13:04N 54°29' E 010°19'611.1
2014-Dec-19 12:33N 54°25' E 010°13'4 4.4
2014-Dec-19 11:33N 54°22' E 010°08'7 6.6
2014-Dec-19 10:34N 54°20' E 009°57'30 7.2
2014-Dec-19 06:23N 54°01' E 009°18'7 8.2
2014-Dec-19 05:33N 53°55' E 009°12'3 3.1
2014-Dec-19 04:33N 53°53' E 009°08'7 7.1
2014-Dec-19 03:33N 53°51' E 008°56'7 7.2
2014-Dec-19 02:33N 53°52' E 008°44'7 7.4
2014-Dec-19 01:33N 53°57' E 008°37'19 6.4
2014-Dec-18 22:33N 53°53' E 008°05'1010.2
2014-Dec-18 21:33N 53°44' E 008°14'1010.4
2014-Dec-18 20:34N 53°38' E 008°27'8 7.8
2014-Dec-18 19:33N 53°30' E 008°31'9 8.8
2014-Dec-18 18:33N 53°22' E 008°30'16 8.2
2014-Dec-18 16:34N 53°07' E 008°43'1 0.7
2014-Dec-18 15:33N 53°07' E 008°44'0 0.0
2014-Dec-18 14:33N 53°07' E 008°44'0 0.0
2014-Dec-18 13:33N 53°07' E 008°44'0 0.0
2014-Dec-18 12:33N 53°07' E 008°44'0 0.0
2014-Dec-18 11:33N 53°07' E 008°44'0 0.0
2014-Dec-18 10:33N 53°07' E 008°44'0 0.0
2014-Dec-18 09:33N 53°07' E 008°44'0 0.0
2014-Dec-18 08:33N 53°07' E 008°44'0 0.0
2014-Dec-18 07:33N 53°07' E 008°44'0 0.0
2014-Dec-18 06:33N 53°07' E 008°44'0 0.0
2014-Dec-18 05:33N 53°07' E 008°44'0 0.0
2014-Dec-18 04:33N 53°07' E 008°44'1 0.7
2014-Dec-18 03:33N 53°07' E 008°43'9 6.3
2014-Dec-18 02:09N 53°12' E 008°31'5 8.7
2014-Dec-18 01:33N 53°17' E 008°29'9 8.7
2014-Dec-18 00:33N 53°26' E 008°29'7 7.1
2014-Dec-17 23:33N 53°33' E 008°34'8 8.0
2014-Dec-17 22:33N 53°39' E 008°25'9 9.1
2014-Dec-17 21:33N 53°45' E 008°13'10 9.7
2014-Dec-17 20:33N 53°51' E 008°01'81 7.7
2014-Dec-17 10:04N 53°37' E 005°46'510.2
2014-Dec-17 09:33N 53°36' E 005°38'1010.2
2014-Dec-17 08:33N 53°32' E 005°21'1010.1
2014-Dec-17 07:33N 53°29' E 005°05'57 9.6
2014-Dec-17 01:33N 52°45' E 004°05'78 7.6
2014-Dec-16 15:16N 51°30' E 003°28'6 8.9
2014-Dec-16 14:33N 51°26' E 003°36'5 4.4
2014-Dec-16 13:31N 51°28' E 003°42'0 0.0
2014-Dec-16 11:28N 51°28' E 003°42'0 0.0
2014-Dec-16 10:31N 51°28' E 003°42'0 0.0
2014-Dec-16 07:25N 51°28' E 003°42'0 0.0
2014-Dec-16 06:28N 51°28' E 003°42'0 0.0
2014-Dec-16 01:07N 51°28' E 003°42'0 0.0
2014-Dec-15 23:19N 51°28' E 003°42'0 0.0
2014-Dec-15 22:10N 51°28' E 003°42'0 0.0
2014-Dec-15 21:25N 51°28' E 003°42'0 0.0
2014-Dec-15 20:19N 51°28' E 003°42'0 0.0
2014-Dec-15 19:31N 51°28' E 003°42'0 0.0
2014-Dec-15 18:19N 51°28' E 003°42'0 0.0
2014-Dec-15 17:19N 51°28' E 003°42'3 3.3
2014-Dec-15 16:33N 51°27' E 003°39'57 6.0
2014-Dec-15 07:04N 51°24' E 002°08'346 8.9
2014-Dec-13 16:10N 47°53' W 004°55'261 5.4
2014-Dec-11 16:10N 43°34' W 005°42'0 0.0
2014-Dec-11 15:28N 43°34' W 005°42'0 0.0
2014-Dec-11 14:28N 43°34' W 005°42'0 0.0
2014-Dec-11 13:28N 43°34' W 005°42'0 0.0
2014-Dec-11 12:22N 43°34' W 005°42'0 0.0
2014-Dec-11 11:28N 43°34' W 005°42'0 0.0
2014-Dec-11 10:28N 43°34' W 005°42'0 0.0
2014-Dec-11 09:28N 43°34' W 005°42'0 0.0
2014-Dec-11 08:28N 43°34' W 005°42'0 0.0
2014-Dec-11 07:28N 43°34' W 005°42'0 0.0
2014-Dec-11 06:16N 43°34' W 005°42'0 0.0
2014-Dec-11 05:22N 43°34' W 005°42'0 0.0
2014-Dec-11 04:22N 43°34' W 005°42'0 0.0
2014-Dec-11 03:28N 43°34' W 005°42'0 0.0
2014-Dec-11 02:34N 43°34' W 005°42'0 0.0
2014-Dec-11 01:34N 43°34' W 005°42'0 0.0
2014-Dec-11 00:33N 43°34' W 005°42'0 0.0
2014-Dec-10 23:33N 43°34' W 005°42'0 0.0
2014-Dec-10 22:27N 43°34' W 005°42'0 0.0
2014-Dec-10 21:33N 43°34' W 005°42'0 0.0
2014-Dec-10 20:33N 43°34' W 005°42'0 0.0
2014-Dec-10 19:33N 43°34' W 005°42'0 0.0
2014-Dec-10 18:33N 43°34' W 005°42'0 0.0
2014-Dec-10 17:21N 43°34' W 005°42'0 0.0
2014-Dec-10 16:33N 43°34' W 005°42'0 0.0
2014-Dec-10 15:33N 43°34' W 005°42'0 0.0
2014-Dec-10 14:33N 43°34' W 005°42'0 0.1
2014-Dec-10 12:33N 43°34' W 005°42'0 0.0
2014-Dec-10 11:33N 43°34' W 005°42'0 0.0
2014-Dec-10 10:27N 43°34' W 005°42'0 0.0
2014-Dec-10 08:33N 43°34' W 005°42'0 0.0
2014-Dec-10 07:27N 43°34' W 005°42'0 0.0
2014-Dec-10 06:03N 43°34' W 005°42'0 0.0
2014-Dec-10 05:09N 43°34' W 005°42'0 0.0
2014-Dec-10 04:33N 43°34' W 005°42'0 0.0
2014-Dec-10 03:27N 43°34' W 005°42'0 0.0
2014-Dec-09 23:33N 43°34' W 005°42'  
Track history (hours):
 
Tides and Currents Weather Stations Pressure Air Temp Water Temp Dewpoint Dewpoint Depression Visibility Wind Speed Wind Dir Waves Ship Positions

Arklow Spray

Last reported at 2014-Dec-19 18:33 UTC. Time now 2014-Dec-21 06:55 UTC.
Position N 54°24' E 012°08'.

Length 90 m; draft 3.4 m.

Type: Cargo ship. MMSI: 309914000.

Date/timePositionNaut miles runAvg speedWind from/ knotsBaromVisibWave heightAir tempDewpointWater temp
2014-Dec-19 18:33N 54°24' E 012°08'1211.8
2014-Dec-19 17:33N 54°24' E 011°48'1212.5
2014-Dec-19 16:33N 54°29' E 011°29'4011.5
2014-Dec-19 13:04N 54°29' E 010°19'611.1
2014-Dec-19 12:33N 54°25' E 010°13'4 4.4
2014-Dec-19 11:33N 54°22' E 010°08'7 6.6
2014-Dec-19 10:34N 54°20' E 009°57'30 7.2
2014-Dec-19 06:23N 54°01' E 009°18'7 8.2
2014-Dec-19 05:33N 53°55' E 009°12'3 3.1
2014-Dec-19 04:33N 53°53' E 009°08'7 7.1
2014-Dec-19 03:33N 53°51' E 008°56'7 7.2
2014-Dec-19 02:33N 53°52' E 008°44'7 7.4
2014-Dec-19 01:33N 53°57' E 008°37'19 6.4
2014-Dec-18 22:33N 53°53' E 008°05'1010.2
2014-Dec-18 21:33N 53°44' E 008°14'1010.4
2014-Dec-18 20:34N 53°38' E 008°27'8 7.8
2014-Dec-18 19:33N 53°30' E 008°31'9 8.8
2014-Dec-18 18:33N 53°22' E 008°30'16 8.2
2014-Dec-18 16:34N 53°07' E 008°43'1 0.7
2014-Dec-18 15:33N 53°07' E 008°44'0 0.0
2014-Dec-18 14:33N 53°07' E 008°44'0 0.0
2014-Dec-18 13:33N 53°07' E 008°44'0 0.0
2014-Dec-18 12:33N 53°07' E 008°44'0 0.0
2014-Dec-18 11:33N 53°07' E 008°44'0 0.0
2014-Dec-18 10:33N 53°07' E 008°44'0 0.0
2014-Dec-18 09:33N 53°07' E 008°44'0 0.0
2014-Dec-18 08:33N 53°07' E 008°44'0 0.0
2014-Dec-18 07:33N 53°07' E 008°44'0 0.0
2014-Dec-18 06:33N 53°07' E 008°44'0 0.0
2014-Dec-18 05:33N 53°07' E 008°44'0 0.0
2014-Dec-18 04:33N 53°07' E 008°44'1 0.7
2014-Dec-18 03:33N 53°07' E 008°43'9 6.3
2014-Dec-18 02:09N 53°12' E 008°31'5 8.7
2014-Dec-18 01:33N 53°17' E 008°29'9 8.7
2014-Dec-18 00:33N 53°26' E 008°29'7 7.1
2014-Dec-17 23:33N 53°33' E 008°34'8 8.0
2014-Dec-17 22:33N 53°39' E 008°25'9 9.1
2014-Dec-17 21:33N 53°45' E 008°13'10 9.7
2014-Dec-17 20:33N 53°51' E 008°01'81 7.7
2014-Dec-17 10:04N 53°37' E 005°46'510.2
2014-Dec-17 09:33N 53°36' E 005°38'1010.2
2014-Dec-17 08:33N 53°32' E 005°21'1010.1
2014-Dec-17 07:33N 53°29' E 005°05'57 9.6
2014-Dec-17 01:33N 52°45' E 004°05'78 7.6
2014-Dec-16 15:16N 51°30' E 003°28'6 8.9
2014-Dec-16 14:33N 51°26' E 003°36'5 4.4
2014-Dec-16 13:31N 51°28' E 003°42'0 0.0
2014-Dec-16 11:28N 51°28' E 003°42'0 0.0
2014-Dec-16 10:31N 51°28' E 003°42'0 0.0
2014-Dec-16 07:25N 51°28' E 003°42'0 0.0
2014-Dec-16 06:28N 51°28' E 003°42'0 0.0
2014-Dec-16 01:07N 51°28' E 003°42'0 0.0
2014-Dec-15 23:19N 51°28' E 003°42'0 0.0
2014-Dec-15 22:10N 51°28' E 003°42'0 0.0
2014-Dec-15 21:25N 51°28' E 003°42'0 0.0
2014-Dec-15 20:19N 51°28' E 003°42'0 0.0
2014-Dec-15 19:31N 51°28' E 003°42'0 0.0
2014-Dec-15 18:19N 51°28' E 003°42'0 0.0
2014-Dec-15 17:19N 51°28' E 003°42'3 3.3
2014-Dec-15 16:33N 51°27' E 003°39'57 6.0
2014-Dec-15 07:04N 51°24' E 002°08'346 8.9
2014-Dec-13 16:10N 47°53' W 004°55'261 5.4
2014-Dec-11 16:10N 43°34' W 005°42'0 0.0
2014-Dec-11 15:28N 43°34' W 005°42'0 0.0
2014-Dec-11 14:28N 43°34' W 005°42'0 0.0
2014-Dec-11 13:28N 43°34' W 005°42'0 0.0
2014-Dec-11 12:22N 43°34' W 005°42'0 0.0
2014-Dec-11 11:28N 43°34' W 005°42'0 0.0
2014-Dec-11 10:28N 43°34' W 005°42'0 0.0
2014-Dec-11 09:28N 43°34' W 005°42'0 0.0
2014-Dec-11 08:28N 43°34' W 005°42'0 0.0
2014-Dec-11 07:28N 43°34' W 005°42'0 0.0
2014-Dec-11 06:16N 43°34' W 005°42'0 0.0
2014-Dec-11 05:22N 43°34' W 005°42'0 0.0
2014-Dec-11 04:22N 43°34' W 005°42'0 0.0
2014-Dec-11 03:28N 43°34' W 005°42'0 0.0
2014-Dec-11 02:34N 43°34' W 005°42'0 0.0
2014-Dec-11 01:34N 43°34' W 005°42'0 0.0
2014-Dec-11 00:33N 43°34' W 005°42'0 0.0
2014-Dec-10 23:33N 43°34' W 005°42'0 0.0
2014-Dec-10 22:27N 43°34' W 005°42'0 0.0
2014-Dec-10 21:33N 43°34' W 005°42'0 0.0
2014-Dec-10 20:33N 43°34' W 005°42'0 0.0
2014-Dec-10 19:33N 43°34' W 005°42'0 0.0
2014-Dec-10 18:33N 43°34' W 005°42'0 0.0
2014-Dec-10 17:21N 43°34' W 005°42'0 0.0
2014-Dec-10 16:33N 43°34' W 005°42'0 0.0
2014-Dec-10 15:33N 43°34' W 005°42'0 0.0
2014-Dec-10 14:33N 43°34' W 005°42'0 0.1
2014-Dec-10 12:33N 43°34' W 005°42'0 0.0
2014-Dec-10 11:33N 43°34' W 005°42'0 0.0
2014-Dec-10 10:27N 43°34' W 005°42'0 0.0
2014-Dec-10 08:33N 43°34' W 005°42'0 0.0
2014-Dec-10 07:27N 43°34' W 005°42'0 0.0
2014-Dec-10 06:03N 43°34' W 005°42'0 0.0
2014-Dec-10 05:09N 43°34' W 005°42'0 0.0
2014-Dec-10 04:33N 43°34' W 005°42'0 0.0
2014-Dec-10 03:27N 43°34' W 005°42'0 0.0
2014-Dec-09 23:33N 43°34' W 005°42'  

Dump ship's entire track history